createdAt,value
2022-09-07T00:00:15.510Z,18.08
2022-09-07T00:01:17.028Z,18.10
2022-09-07T00:02:18.523Z,18.07
2022-09-07T00:03:20.880Z,18.16
2022-09-07T00:04:22.517Z,18.13
2022-09-07T00:05:24.030Z,18.01
2022-09-07T00:06:25.570Z,18.08
2022-09-07T00:07:27.035Z,18.09
2022-09-07T00:08:28.572Z,18.09
2022-09-07T00:09:30.077Z,18.09
2022-09-07T00:10:31.560Z,18.06
2022-09-07T00:11:33.193Z,18.04
2022-09-07T00:12:34.715Z,18.05
2022-09-07T00:13:38.663Z,18.09
2022-09-07T00:14:40.171Z,17.97
2022-09-07T00:15:43.024Z,17.89
2022-09-07T00:16:44.557Z,18.03
2022-09-07T00:17:46.050Z,18.06
2022-09-07T00:18:47.966Z,18.03
2022-09-07T00:19:49.446Z,18.04
2022-09-07T00:20:58.485Z,17.98
2022-09-07T00:21:59.986Z,17.84
2022-09-07T00:23:01.449Z,17.94
2022-09-07T00:24:03.380Z,18.04
2022-09-07T00:25:05.935Z,18.02
2022-09-07T00:26:09.593Z,17.99
2022-09-07T00:27:11.074Z,18.01
2022-09-07T00:28:12.549Z,18.06
2022-09-07T00:29:14.090Z,18.09
2022-09-07T00:30:15.819Z,18.04
2022-09-07T00:31:20.412Z,18.09
2022-09-07T00:32:22.106Z,18.16
2022-09-07T00:33:23.608Z,18.16
2022-09-07T00:34:25.110Z,18.16
2022-09-07T00:35:26.651Z,18.08
2022-09-07T00:36:28.447Z,18.07
2022-09-07T00:37:29.953Z,17.98
2022-09-07T00:38:31.778Z,18.01
2022-09-07T00:39:33.449Z,18.10
2022-09-07T00:40:35.239Z,18.10
2022-09-07T00:41:36.782Z,18.07
2022-09-07T00:42:38.251Z,18.15
2022-09-07T00:43:42.112Z,18.18
2022-09-07T00:45:01.744Z,18.12
2022-09-07T00:46:05.357Z,18.13
2022-09-07T00:47:11.548Z,18.18
2022-09-07T00:48:17.582Z,18.19
2022-09-07T00:49:22.821Z,18.20
2022-09-07T00:50:29.893Z,18.15
2022-09-07T00:51:36.749Z,18.17
2022-09-07T00:52:41.867Z,18.24
2022-09-07T00:53:46.967Z,18.21
2022-09-07T00:54:53.181Z,18.19
2022-09-07T00:55:56.538Z,18.14
2022-09-07T00:56:58.282Z,18.23
2022-09-07T00:58:00.120Z,18.21
2022-09-07T00:59:01.884Z,18.26
2022-09-07T01:00:05.379Z,18.23
2022-09-07T01:01:07.806Z,18.23
2022-09-07T01:02:11.474Z,18.27
2022-09-07T01:03:15.852Z,18.21
2022-09-07T01:04:18.277Z,18.15
2022-09-07T01:05:27.423Z,18.05
2022-09-07T01:06:32.159Z,18.07
2022-09-07T01:07:33.720Z,18.13
2022-09-07T01:08:35.336Z,18.10
2022-09-07T01:09:38.253Z,18.16
2022-09-07T01:10:40.368Z,18.12
2022-09-07T01:11:43.070Z,18.17
2022-09-07T01:12:44.565Z,18.18
2022-09-07T01:13:47.241Z,18.17
2022-09-07T01:14:51.533Z,18.18
2022-09-07T01:15:59.679Z,18.18
2022-09-07T01:17:11.145Z,18.18
2022-09-07T01:18:18.235Z,18.11
2022-09-07T01:20:04.453Z,18.16
2022-09-07T01:21:25.752Z,18.10
2022-09-07T01:22:46.633Z,18.04
2022-09-07T01:24:32.636Z,18.08
2022-09-07T01:25:42.751Z,18.06
2022-09-07T01:27:23.540Z,18.05
2022-09-07T01:28:28.446Z,18.10
2022-09-07T01:29:35.445Z,18.09
2022-09-07T01:30:39.160Z,18.15
2022-09-07T01:31:52.303Z,18.10
2022-09-07T01:33:15.097Z,18.06
2022-09-07T01:34:21.729Z,18.06
2022-09-07T01:35:44.113Z,17.97
2022-09-07T01:36:52.241Z,17.98
2022-09-07T01:38:02.737Z,18.00
2022-09-07T01:39:05.692Z,18.00
2022-09-07T01:40:11.331Z,17.95
2022-09-07T01:41:18.991Z,17.96
2022-09-07T01:42:24.339Z,17.99
2022-09-07T01:43:35.241Z,18.00
2022-09-07T01:44:41.933Z,17.92
2022-09-07T01:45:45.363Z,17.85
2022-09-07T01:46:52.513Z,17.88
2022-09-07T01:47:56.902Z,17.79
2022-09-07T01:49:04.527Z,17.81
2022-09-07T01:50:12.058Z,17.80
2022-09-07T01:51:15.289Z,17.74
2022-09-07T01:52:25.875Z,17.76
2022-09-07T01:53:33.560Z,17.78
2022-09-07T01:54:41.880Z,17.66
2022-09-07T01:55:46.632Z,17.74
2022-09-07T01:56:53.820Z,17.73
2022-09-07T01:58:01.704Z,17.62
2022-09-07T01:59:08.975Z,17.54
2022-09-07T02:00:14.216Z,17.56
2022-09-07T02:01:23.701Z,17.46
2022-09-07T02:02:30.735Z,17.55
2022-09-07T02:03:38.421Z,17.41
2022-09-07T02:04:44.310Z,17.56
2022-09-07T02:05:52.615Z,17.60
2022-09-07T02:06:59.176Z,17.56
2022-09-07T02:08:08.544Z,17.65
2022-09-07T02:09:16.803Z,17.52
2022-09-07T02:10:24.026Z,17.53
2022-09-07T02:11:30.120Z,17.52
2022-09-07T02:12:47.134Z,17.52
2022-09-07T02:13:54.239Z,17.47
2022-09-07T02:15:00.865Z,17.43
2022-09-07T02:16:06.193Z,17.39
2022-09-07T02:17:13.660Z,17.34
2022-09-07T02:18:15.177Z,17.31
2022-09-07T02:19:19.793Z,17.20
2022-09-07T02:20:25.009Z,17.16
2022-09-07T02:21:31.480Z,17.06
2022-09-07T02:22:38.448Z,17.08
2022-09-07T02:23:45.415Z,17.05
2022-09-07T02:24:52.202Z,17.10
2022-09-07T02:25:58.844Z,17.08
2022-09-07T02:27:04.360Z,16.78
2022-09-07T02:28:10.052Z,16.88
2022-09-07T02:29:11.575Z,16.97
2022-09-07T02:30:14.579Z,17.03
2022-09-07T02:31:16.334Z,16.87
2022-09-07T02:32:18.285Z,16.88
2022-09-07T02:33:19.887Z,16.79
2022-09-07T02:34:21.946Z,16.77
2022-09-07T02:35:23.493Z,16.83
2022-09-07T02:36:28.270Z,16.88
2022-09-07T02:37:31.132Z,16.88
2022-09-07T02:38:33.807Z,16.94
2022-09-07T02:39:35.484Z,17.00
2022-09-07T02:40:37.008Z,17.02
2022-09-07T02:41:40.243Z,17.09
2022-09-07T02:42:42.791Z,17.05
2022-09-07T02:43:44.320Z,17.03
2022-09-07T02:44:46.585Z,17.05
2022-09-07T02:46:07.156Z,17.09
2022-09-07T02:47:20.292Z,17.01
2022-09-07T02:48:31.413Z,16.99
2022-09-07T02:49:45.168Z,16.90
2022-09-07T02:50:56.483Z,16.97
2022-09-07T02:52:03.686Z,16.94
2022-09-07T02:53:21.874Z,16.96
2022-09-07T02:54:40.504Z,17.01
2022-09-07T02:55:52.707Z,17.01
2022-09-07T02:57:04.209Z,16.98
2022-09-07T02:58:19.148Z,17.00
2022-09-07T02:59:38.209Z,16.95
2022-09-07T03:00:45.926Z,16.98
2022-09-07T03:01:56.769Z,16.99
2022-09-07T03:03:06.842Z,16.96
2022-09-07T03:04:13.508Z,16.96
2022-09-07T03:05:20.316Z,17.00
2022-09-07T03:06:26.359Z,16.99
2022-09-07T03:07:35.667Z,16.96
2022-09-07T03:08:41.890Z,16.95
2022-09-07T03:09:47.115Z,17.01
2022-09-07T03:10:49.876Z,17.06
2022-09-07T03:11:52.191Z,16.98
2022-09-07T03:12:53.691Z,16.98
2022-09-07T03:14:13.768Z,16.99
2022-09-07T03:15:17.690Z,17.04
2022-09-07T03:16:19.206Z,17.07
2022-09-07T03:17:22.055Z,17.03
2022-09-07T03:18:24.160Z,17.09
2022-09-07T03:19:25.667Z,17.03
2022-09-07T03:20:27.223Z,17.05
2022-09-07T03:21:28.676Z,17.04
2022-09-07T03:22:30.137Z,17.01
2022-09-07T03:23:31.725Z,17.06
2022-09-07T03:24:33.376Z,17.10
2022-09-07T03:25:35.085Z,17.05
2022-09-07T03:26:40.105Z,17.08
2022-09-07T03:27:42.048Z,17.07
2022-09-07T03:28:43.534Z,17.11
2022-09-07T03:29:44.999Z,17.08
2022-09-07T03:30:46.595Z,17.07
2022-09-07T03:31:48.152Z,17.08
2022-09-07T03:32:51.028Z,17.10
2022-09-07T03:33:52.492Z,17.12
2022-09-07T03:34:53.970Z,17.10
2022-09-07T03:35:59.674Z,17.09
2022-09-07T03:37:01.126Z,17.08
2022-09-07T03:38:02.624Z,17.06
2022-09-07T03:39:05.341Z,17.03
2022-09-07T03:40:09.638Z,17.01
2022-09-07T03:41:11.193Z,17.02
2022-09-07T03:42:12.646Z,17.04
2022-09-07T03:43:14.141Z,17.06
2022-09-07T03:44:15.626Z,16.97
2022-09-07T03:45:17.567Z,16.85
2022-09-07T03:46:19.548Z,16.83
2022-09-07T03:47:21.224Z,16.80
2022-09-07T03:48:24.318Z,16.87
2022-09-07T03:49:25.866Z,16.81
2022-09-07T03:50:27.345Z,16.77
2022-09-07T03:51:28.856Z,16.72
2022-09-07T03:52:30.393Z,16.71
2022-09-07T03:53:33.344Z,16.66
2022-09-07T03:54:37.810Z,16.66
2022-09-07T03:55:41.011Z,16.65
2022-09-07T03:56:42.505Z,16.68
2022-09-07T03:57:43.969Z,16.76
2022-09-07T03:58:46.568Z,16.82
2022-09-07T03:59:48.424Z,16.76
2022-09-07T04:00:49.901Z,16.81
2022-09-07T04:01:51.469Z,16.72
2022-09-07T04:02:53.009Z,16.85
2022-09-07T04:04:02.161Z,16.87
2022-09-07T04:05:04.666Z,16.92
2022-09-07T04:06:06.319Z,16.88
2022-09-07T04:07:07.795Z,16.91
2022-09-07T04:08:09.264Z,16.88
2022-09-07T04:09:13.291Z,16.93
2022-09-07T04:10:14.879Z,16.99
2022-09-07T04:11:18.177Z,16.95
2022-09-07T04:12:19.650Z,16.92
2022-09-07T04:13:21.130Z,16.92
2022-09-07T04:14:22.676Z,16.94
2022-09-07T04:15:24.280Z,16.91
2022-09-07T04:16:27.593Z,16.95
2022-09-07T04:17:29.100Z,16.91
2022-09-07T04:18:30.675Z,16.95
2022-09-07T04:19:33.577Z,16.91
2022-09-07T04:20:35.035Z,16.93
2022-09-07T04:21:36.523Z,16.93
2022-09-07T04:22:38.014Z,16.99
2022-09-07T04:23:39.791Z,16.89
2022-09-07T04:24:41.328Z,16.88
2022-09-07T04:25:47.321Z,16.91
2022-09-07T04:26:48.820Z,16.85
2022-09-07T04:27:50.329Z,16.88
2022-09-07T04:28:52.736Z,16.89
2022-09-07T04:29:54.203Z,16.94
2022-09-07T04:30:55.761Z,16.84
2022-09-07T04:31:57.317Z,16.82
2022-09-07T04:32:58.811Z,16.83
2022-09-07T04:34:00.297Z,16.76
2022-09-07T04:35:03.891Z,16.79
2022-09-07T04:36:05.736Z,16.84
2022-09-07T04:37:07.205Z,16.82
2022-09-07T04:38:13.613Z,16.75
2022-09-07T04:39:15.126Z,16.62
2022-09-07T04:40:16.804Z,16.52
2022-09-07T04:41:18.830Z,16.64
2022-09-07T04:42:21.030Z,16.50
2022-09-07T04:43:22.516Z,16.57
2022-09-07T04:44:24.013Z,16.60
2022-09-07T04:45:25.590Z,16.58
2022-09-07T04:46:29.153Z,16.58
2022-09-07T04:47:30.739Z,16.55
2022-09-07T04:48:32.234Z,16.49
2022-09-07T04:49:33.691Z,16.47
2022-09-07T04:50:36.641Z,16.55
2022-09-07T04:51:39.240Z,16.46
2022-09-07T04:52:40.848Z,16.49
2022-09-07T04:53:42.401Z,16.56
2022-09-07T04:54:44.219Z,16.52
2022-09-07T04:55:45.725Z,16.47
2022-09-07T04:56:47.222Z,16.39
2022-09-07T04:57:49.214Z,16.45
2022-09-07T04:58:51.357Z,16.37
2022-09-07T04:59:52.807Z,16.42
2022-09-07T05:00:54.590Z,16.37
2022-09-07T05:01:56.129Z,16.35
2022-09-07T05:02:57.668Z,16.34
2022-09-07T05:03:59.844Z,16.27
2022-09-07T05:05:02.865Z,16.35
2022-09-07T05:06:07.415Z,16.32
2022-09-07T05:07:08.933Z,16.37
2022-09-07T05:08:10.963Z,16.41
2022-09-07T05:09:12.435Z,16.43
2022-09-07T05:10:13.927Z,16.43
2022-09-07T05:11:16.730Z,16.45
2022-09-07T05:12:18.201Z,16.43
2022-09-07T05:13:20.326Z,16.41
2022-09-07T05:14:21.819Z,16.40
2022-09-07T05:15:23.323Z,16.36
2022-09-07T05:16:25.666Z,16.45
2022-09-07T05:17:27.299Z,16.44
2022-09-07T05:18:28.805Z,16.46
2022-09-07T05:19:30.526Z,16.36
2022-09-07T05:20:32.073Z,16.33
2022-09-07T05:21:35.282Z,16.22
2022-09-07T05:22:36.736Z,16.18
2022-09-07T05:23:38.827Z,16.12
2022-09-07T05:24:40.300Z,16.07
2022-09-07T05:25:43.665Z,16.07
2022-09-07T05:26:45.137Z,15.99
2022-09-07T05:27:46.646Z,16.01
2022-09-07T05:28:48.789Z,15.99
2022-09-07T05:30:06.276Z,16.03
2022-09-07T05:31:17.979Z,16.14
2022-09-07T05:32:20.505Z,16.14
2022-09-07T05:33:22.445Z,16.19
2022-09-07T05:35:29.388Z,16.27
2022-09-07T05:36:30.853Z,16.43
2022-09-07T05:37:33.751Z,16.45
2022-09-07T05:38:36.356Z,16.50
2022-09-07T05:39:37.868Z,16.43
2022-09-07T05:40:40.793Z,16.54
2022-09-07T05:41:42.631Z,16.69
2022-09-07T05:42:44.307Z,16.85
2022-09-07T05:45:09.046Z,16.94
2022-09-07T05:46:11.422Z,17.05
2022-09-07T05:47:13.485Z,17.04
2022-09-07T05:48:15.005Z,16.82
2022-09-07T05:49:16.480Z,16.69
2022-09-07T05:50:17.992Z,16.76
2022-09-07T05:51:19.497Z,16.79
2022-09-07T05:52:21.235Z,16.72
2022-09-07T05:53:24.081Z,16.72
2022-09-07T05:54:25.589Z,16.69
2022-09-07T05:55:30.850Z,16.73
2022-09-07T05:56:33.901Z,16.74
2022-09-07T05:57:35.366Z,16.71
2022-09-07T05:58:36.986Z,16.72
2022-09-07T05:59:38.488Z,16.68
2022-09-07T06:00:40.001Z,16.85
2022-09-07T06:01:41.500Z,16.84
2022-09-07T06:02:43.091Z,16.90
2022-09-07T06:03:44.984Z,17.04
2022-09-07T06:04:46.562Z,17.17
2022-09-07T06:05:48.032Z,17.16
2022-09-07T06:07:17.726Z,17.14
2022-09-07T06:08:10.965Z,17.23
2022-09-07T06:09:13.784Z,17.18
2022-09-07T06:11:36.834Z,17.06
2022-09-07T06:12:38.331Z,16.96
2022-09-07T06:13:39.988Z,16.86
2022-09-07T06:14:41.455Z,17.08
2022-09-07T06:15:42.955Z,17.03
2022-09-07T06:16:44.496Z,17.02
2022-09-07T06:17:46.044Z,17.28
2022-09-07T06:18:49.301Z,17.25
2022-09-07T06:19:50.779Z,17.31
2022-09-07T06:20:52.244Z,17.51
2022-09-07T06:21:53.721Z,17.32
2022-09-07T06:22:55.205Z,17.50
2022-09-07T06:23:56.699Z,17.49
2022-09-07T06:24:59.487Z,17.69
2022-09-07T06:26:01.373Z,17.57
2022-09-07T06:27:02.912Z,17.64
2022-09-07T06:28:04.388Z,17.71
2022-09-07T06:29:06.075Z,17.70
2022-09-07T06:30:08.660Z,17.61
2022-09-07T06:31:11.816Z,17.45
2022-09-07T06:33:35.404Z,17.14
2022-09-07T06:34:37.000Z,17.10
2022-09-07T06:35:38.459Z,16.97
2022-09-07T06:36:39.930Z,17.08
2022-09-07T06:37:42.092Z,16.98
2022-09-07T06:38:44.182Z,16.87
2022-09-07T06:39:45.738Z,16.90
2022-09-07T06:40:48.797Z,16.91
2022-09-07T06:42:58.938Z,16.80
2022-09-07T06:44:00.456Z,16.82
2022-09-07T06:45:01.955Z,16.83
2022-09-07T06:47:25.355Z,16.73
2022-09-07T06:48:27.722Z,16.83
2022-09-07T06:49:29.256Z,16.77
2022-09-07T06:50:30.749Z,16.85
2022-09-07T06:51:32.211Z,16.89
2022-09-07T06:55:19.706Z,16.81
2022-09-07T06:56:23.847Z,16.78
2022-09-07T06:57:25.311Z,16.63
2022-09-07T06:58:27.242Z,16.77
2022-09-07T06:59:28.765Z,16.82
2022-09-07T07:00:30.252Z,16.64
2022-09-07T07:01:32.006Z,16.65
2022-09-07T07:02:33.539Z,16.66
2022-09-07T07:03:35.125Z,16.72
2022-09-07T07:04:40.798Z,16.67
2022-09-07T07:05:43.850Z,16.58
2022-09-07T07:06:45.330Z,16.70
2022-09-07T07:07:46.888Z,16.70
2022-09-07T07:08:48.401Z,16.66
2022-09-07T07:09:49.951Z,16.65
2022-09-07T07:10:52.635Z,16.62
2022-09-07T07:11:55.467Z,16.79
2022-09-07T07:12:57.751Z,16.79
2022-09-07T07:14:00.018Z,16.63
2022-09-07T07:15:01.514Z,16.89
2022-09-07T07:16:04.429Z,16.88
2022-09-07T07:17:05.975Z,17.01
2022-09-07T07:18:20.240Z,16.84
2022-09-07T07:19:22.285Z,16.98
2022-09-07T07:20:23.938Z,16.96
2022-09-07T07:21:25.410Z,17.20
2022-09-07T07:22:46.006Z,17.04
2022-09-07T07:23:50.254Z,17.18
2022-09-07T07:24:51.732Z,17.38
2022-09-07T07:25:53.205Z,17.27
2022-09-07T07:26:55.993Z,17.32
2022-09-07T07:27:57.662Z,17.28
2022-09-07T07:30:06.495Z,17.39
2022-09-07T07:31:11.293Z,17.17
2022-09-07T07:32:14.465Z,17.19
2022-09-07T07:33:15.982Z,17.16
2022-09-07T07:34:17.555Z,17.37
2022-09-07T07:35:19.324Z,17.20
2022-09-07T07:36:22.273Z,17.34
2022-09-07T07:37:27.802Z,17.38
2022-09-07T07:42:37.417Z,17.35
2022-09-07T07:43:39.426Z,17.46
2022-09-07T07:44:40.867Z,17.70
2022-09-07T07:46:01.280Z,17.82
2022-09-07T07:47:05.513Z,17.85
2022-09-07T07:48:06.964Z,17.93
2022-09-07T07:49:09.032Z,18.15
2022-09-07T07:52:50.019Z,18.26
2022-09-07T07:54:15.696Z,18.39
2022-09-07T07:56:38.539Z,18.53
2022-09-07T07:57:41.296Z,18.58
2022-09-07T07:58:45.592Z,18.30
2022-09-07T07:59:47.017Z,18.42
2022-09-07T08:00:54.629Z,18.47
2022-09-07T08:01:57.000Z,18.88
2022-09-07T08:02:58.600Z,18.90
2022-09-07T08:04:00.068Z,18.74
2022-09-07T08:05:01.639Z,18.95
2022-09-07T08:06:07.827Z,18.92
2022-09-07T08:07:11.166Z,19.07
2022-09-07T08:08:12.869Z,19.07
2022-09-07T08:09:14.578Z,19.21
2022-09-07T08:10:16.058Z,19.39
2022-09-07T08:11:19.090Z,19.41
2022-09-07T08:12:20.630Z,19.40
2022-09-07T08:13:23.367Z,19.51
2022-09-07T08:14:25.056Z,19.34
2022-09-07T08:15:26.527Z,19.39
2022-09-07T08:16:28.027Z,19.57
2022-09-07T08:17:29.497Z,19.51
2022-09-07T08:18:32.909Z,19.69
2022-09-07T08:19:34.321Z,19.97
2022-09-07T08:20:35.795Z,19.95
2022-09-07T08:21:37.480Z,20.05
2022-09-07T08:22:38.914Z,20.36
2022-09-07T08:23:41.293Z,20.35
2022-09-07T08:24:42.724Z,20.47
2022-09-07T08:25:51.859Z,20.47
2022-09-07T08:26:53.343Z,20.27
2022-09-07T08:27:54.811Z,20.61
2022-09-07T08:28:57.595Z,20.63
2022-09-07T08:29:59.287Z,20.63
2022-09-07T08:31:04.348Z,20.94
2022-09-07T08:32:06.637Z,21.22
2022-09-07T08:33:08.245Z,21.40
2022-09-07T08:34:10.013Z,21.69
2022-09-07T08:35:11.441Z,21.87
2022-09-07T08:36:15.086Z,22.06
2022-09-07T08:37:16.513Z,22.03
2022-09-07T08:38:20.915Z,21.94
2022-09-07T08:39:22.601Z,21.98
2022-09-07T08:40:24.042Z,21.95
2022-09-07T08:41:38.383Z,21.84
2022-09-07T08:42:53.847Z,22.25
2022-09-07T08:44:01.581Z,22.37
2022-09-07T08:45:06.328Z,22.21
2022-09-07T08:46:15.585Z,21.87
2022-09-07T08:47:27.017Z,22.15
2022-09-07T08:48:32.232Z,22.01
2022-09-07T08:49:41.281Z,22.10
2022-09-07T08:50:53.669Z,22.13
2022-09-07T08:51:58.460Z,22.08
2022-09-07T08:53:07.194Z,22.31
2022-09-07T08:54:12.455Z,22.65
2022-09-07T08:55:19.533Z,22.10
2022-09-07T08:56:31.514Z,22.43
2022-09-07T08:57:38.865Z,22.52
2022-09-07T08:58:49.115Z,22.48
2022-09-07T09:00:01.901Z,22.67
2022-09-07T09:02:36.531Z,22.57
2022-09-07T09:05:18.182Z,22.11
2022-09-07T09:06:27.465Z,21.90
2022-09-07T09:07:35.959Z,22.36
2022-09-07T09:08:51.628Z,22.04
2022-09-07T09:10:12.559Z,22.45
2022-09-07T09:11:21.244Z,22.33
2022-09-07T09:12:34.330Z,22.24
2022-09-07T09:13:54.954Z,22.44
2022-09-07T09:15:09.040Z,22.52
2022-09-07T09:16:14.923Z,22.65
2022-09-07T09:17:27.849Z,22.61
2022-09-07T09:18:48.138Z,22.64
2022-09-07T09:19:57.518Z,22.73
2022-09-07T09:21:00.376Z,22.57
2022-09-07T09:22:17.265Z,22.31
2022-09-07T09:23:20.380Z,22.29
2022-09-07T09:24:31.843Z,22.20
2022-09-07T09:25:35.421Z,22.13
2022-09-07T09:26:39.040Z,22.10
2022-09-07T09:27:40.488Z,22.29
2022-09-07T09:28:41.932Z,22.63
2022-09-07T09:29:43.463Z,23.01
2022-09-07T09:30:46.261Z,23.02
2022-09-07T09:31:47.939Z,23.22
2022-09-07T09:32:51.206Z,23.39
2022-09-07T09:34:12.863Z,23.51
2022-09-07T09:35:19.442Z,23.29
2022-09-07T09:36:31.031Z,23.00
2022-09-07T09:37:37.542Z,23.36
2022-09-07T09:38:40.219Z,22.67
2022-09-07T09:39:41.647Z,23.09
2022-09-07T09:40:52.229Z,23.43
2022-09-07T09:41:54.017Z,23.41
2022-09-07T09:43:01.037Z,23.08
2022-09-07T09:44:03.316Z,23.27
2022-09-07T09:45:14.665Z,23.24
2022-09-07T09:46:22.646Z,23.25
2022-09-07T09:47:31.262Z,23.04
2022-09-07T09:48:36.398Z,22.65
2022-09-07T09:49:39.886Z,22.53
2022-09-07T09:52:36.552Z,22.83
2022-09-07T09:53:46.829Z,23.38
2022-09-07T09:54:51.425Z,23.74
2022-09-07T09:55:54.253Z,23.42
2022-09-07T09:56:56.015Z,23.50
2022-09-07T10:03:57.388Z,23.34
2022-09-07T10:05:00.883Z,23.51
2022-09-07T10:06:05.216Z,23.56
2022-09-07T10:07:18.993Z,23.25
2022-09-07T10:08:24.837Z,23.54
2022-09-07T10:09:37.965Z,23.89
2022-09-07T10:10:50.797Z,23.91
2022-09-07T10:12:12.876Z,24.02
2022-09-07T10:13:20.792Z,24.02
2022-09-07T10:14:27.711Z,24.24
2022-09-07T10:15:35.435Z,24.29
2022-09-07T10:16:41.425Z,24.33
2022-09-07T10:17:48.490Z,23.77
2022-09-07T10:18:55.635Z,23.61
2022-09-07T10:20:00.183Z,23.59
2022-09-07T10:21:13.457Z,23.87
2022-09-07T10:22:31.371Z,23.89
2022-09-07T10:23:32.921Z,23.93
2022-09-07T10:24:38.821Z,24.25
2022-09-07T10:25:41.795Z,24.17
2022-09-07T10:26:43.284Z,24.10
2022-09-07T10:27:44.753Z,24.16
2022-09-07T10:30:15.421Z,23.54
2022-09-07T10:31:21.606Z,23.76
2022-09-07T10:32:30.000Z,23.74
2022-09-07T10:34:25.755Z,23.44
2022-09-07T10:35:16.174Z,23.98
2022-09-07T10:36:25.251Z,24.36
2022-09-07T10:37:37.783Z,24.28
2022-09-07T10:38:45.148Z,24.64
2022-09-07T10:40:01.762Z,24.04
2022-09-07T10:41:05.824Z,24.00
2022-09-07T10:42:22.391Z,24.23
2022-09-07T10:43:39.289Z,24.58
2022-09-07T10:44:53.472Z,24.77
2022-09-07T10:46:56.338Z,24.97
2022-09-07T10:47:53.376Z,24.92
2022-09-07T10:49:10.919Z,24.57
2022-09-07T10:50:23.603Z,25.09
2022-09-07T10:51:34.774Z,24.87
2022-09-07T10:52:44.798Z,24.97
2022-09-07T10:54:30.134Z,25.21
2022-09-07T10:55:20.291Z,24.40
2022-09-07T10:56:26.090Z,24.39
2022-09-07T10:57:40.216Z,24.32
2022-09-07T10:59:03.904Z,24.51
2022-09-07T11:00:10.734Z,24.54
2022-09-07T11:01:19.975Z,24.60
2022-09-07T11:02:31.065Z,25.02
2022-09-07T11:03:51.044Z,24.25
2022-09-07T11:05:05.507Z,24.91
2022-09-07T11:06:15.129Z,24.50
2022-09-07T11:07:31.341Z,24.47
2022-09-07T11:10:17.937Z,24.73
2022-09-07T11:12:00.836Z,24.82
2022-09-07T11:12:50.704Z,24.95
2022-09-07T11:14:11.924Z,25.02
2022-09-07T11:15:18.617Z,25.60
2022-09-07T11:17:52.823Z,25.38
2022-09-07T11:20:28.141Z,25.31
2022-09-07T11:23:10.862Z,25.25
2022-09-07T11:24:22.278Z,25.27
2022-09-07T11:25:30.437Z,25.69
2022-09-07T11:26:39.631Z,25.26
2022-09-07T11:27:47.050Z,24.99
2022-09-07T11:30:20.655Z,25.27
2022-09-07T11:31:25.292Z,25.43
2022-09-07T11:32:31.944Z,25.41
2022-09-07T11:33:36.984Z,25.15
2022-09-07T11:34:45.151Z,24.87
2022-09-07T11:35:52.673Z,24.71
2022-09-07T11:37:00.728Z,24.67
2022-09-07T11:38:10.473Z,24.76
2022-09-07T11:39:16.793Z,24.93
2022-09-07T11:40:24.600Z,25.18
2022-09-07T11:41:28.864Z,25.27
2022-09-07T11:42:49.053Z,25.02
2022-09-07T11:43:59.352Z,25.29
2022-09-07T11:45:05.361Z,25.34
2022-09-07T11:46:13.097Z,25.34
2022-09-07T11:47:24.740Z,25.34
2022-09-07T11:48:33.067Z,25.32
2022-09-07T11:49:34.652Z,25.56
2022-09-07T11:50:38.651Z,25.53
2022-09-07T11:51:45.963Z,25.49
2022-09-07T11:52:53.527Z,25.71
2022-09-07T11:54:01.141Z,25.97
2022-09-07T11:55:07.658Z,26.16
2022-09-07T11:56:14.209Z,26.16
2022-09-07T11:57:41.736Z,26.02
2022-09-07T11:59:01.122Z,25.84
2022-09-07T12:00:06.894Z,25.85
2022-09-07T12:01:19.717Z,25.63
2022-09-07T12:02:58.927Z,25.37
2022-09-07T12:04:21.310Z,24.92
2022-09-07T12:05:31.290Z,25.11
2022-09-07T12:06:55.095Z,24.77
2022-09-07T12:08:14.041Z,24.69
2022-09-07T12:09:39.472Z,24.79
2022-09-07T12:10:55.289Z,24.82
2022-09-07T12:12:25.097Z,24.56
2022-09-07T12:13:49.384Z,24.63
2022-09-07T12:15:07.161Z,24.72
2022-09-07T12:16:16.499Z,24.30
2022-09-07T12:17:41.172Z,24.43
2022-09-07T12:19:08.442Z,24.82
2022-09-07T12:20:18.183Z,25.00
2022-09-07T12:21:39.894Z,25.20
2022-09-07T12:23:02.205Z,24.91
2022-09-07T12:24:32.266Z,25.19
2022-09-07T12:25:35.031Z,25.04
2022-09-07T12:26:50.280Z,25.06
2022-09-07T12:27:52.586Z,25.08
2022-09-07T12:29:20.018Z,25.23
2022-09-07T12:30:54.254Z,24.98
2022-09-07T12:31:58.760Z,24.69
2022-09-07T12:33:02.707Z,24.64
2022-09-07T12:34:37.532Z,24.01
2022-09-07T12:35:40.291Z,24.14
2022-09-07T12:36:49.013Z,23.52
2022-09-07T12:37:50.464Z,23.51
2022-09-07T12:39:22.292Z,23.25
2022-09-07T12:40:56.652Z,23.19
2022-09-07T12:42:38.175Z,23.23
2022-09-07T12:44:07.085Z,23.32
2022-09-07T12:45:49.261Z,23.64
2022-09-07T12:46:53.891Z,23.88
2022-09-07T12:47:58.640Z,23.93
2022-09-07T12:49:06.472Z,23.97
2022-09-07T12:50:28.490Z,24.27
2022-09-07T12:53:24.400Z,23.96
2022-09-07T12:54:34.775Z,23.92
2022-09-07T12:57:30.232Z,23.51
2022-09-07T12:58:47.113Z,23.54
2022-09-07T13:00:00.612Z,23.56
2022-09-07T13:01:15.241Z,23.52
2022-09-07T13:02:48.976Z,23.46
2022-09-07T13:04:18.483Z,23.46
2022-09-07T13:05:37.675Z,23.35
2022-09-07T13:07:03.780Z,23.36
2022-09-07T13:08:45.856Z,23.29
2022-09-07T13:09:55.916Z,23.40
2022-09-07T13:11:16.195Z,23.47
2022-09-07T13:14:05.324Z,23.35
2022-09-07T13:15:37.652Z,23.18
2022-09-07T13:18:02.773Z,23.62
2022-09-07T13:19:06.059Z,23.67
2022-09-07T13:20:26.999Z,23.76
2022-09-07T13:21:40.561Z,23.99
2022-09-07T13:23:07.340Z,23.94
2022-09-07T13:24:46.519Z,24.05
2022-09-07T13:25:52.734Z,24.27
2022-09-07T13:26:58.574Z,24.27
2022-09-07T13:28:01.477Z,24.22
2022-09-07T13:29:11.429Z,24.36
2022-09-07T13:30:27.566Z,24.41
2022-09-07T13:31:42.759Z,24.37
2022-09-07T13:34:20.472Z,24.44
2022-09-07T13:35:24.051Z,24.42
2022-09-07T13:36:37.520Z,24.08
2022-09-07T13:37:45.891Z,23.95
2022-09-07T13:38:50.189Z,24.24
2022-09-07T13:39:55.029Z,24.43
2022-09-07T13:41:05.143Z,24.20
2022-09-07T13:42:07.253Z,24.14
2022-09-07T13:43:15.865Z,24.28
2022-09-07T13:44:26.277Z,24.32
2022-09-07T13:45:31.572Z,24.26
2022-09-07T13:46:50.225Z,24.36
2022-09-07T13:47:58.236Z,24.30
2022-09-07T13:49:08.620Z,24.31
2022-09-07T13:50:18.576Z,24.22
2022-09-07T13:51:26.888Z,24.22
2022-09-07T13:52:42.502Z,24.11
2022-09-07T13:53:59.115Z,24.28
2022-09-07T13:55:20.697Z,24.20
2022-09-07T13:56:37.527Z,24.31
2022-09-07T13:57:50.832Z,24.35
2022-09-07T13:58:53.304Z,24.36
2022-09-07T13:59:55.700Z,24.43
2022-09-07T14:01:00.563Z,24.46
2022-09-07T14:02:02.248Z,24.51
2022-09-07T14:03:06.313Z,24.63
2022-09-07T14:04:21.777Z,24.62
2022-09-07T14:05:23.649Z,24.61
2022-09-07T14:06:31.491Z,24.60
2022-09-07T14:07:32.932Z,24.68
2022-09-07T14:08:39.217Z,24.62
2022-09-07T14:09:41.658Z,24.70
2022-09-07T14:10:47.856Z,24.66
2022-09-07T14:11:52.413Z,24.57
2022-09-07T14:13:04.758Z,24.62
2022-09-07T14:14:12.818Z,24.61
2022-09-07T14:15:23.537Z,24.56
2022-09-07T14:16:25.113Z,24.51
2022-09-07T14:17:27.924Z,24.52
2022-09-07T14:18:31.066Z,24.64
2022-09-07T14:19:36.789Z,24.80
2022-09-07T14:20:41.641Z,24.90
2022-09-07T14:21:43.214Z,24.90
2022-09-07T14:22:46.685Z,24.65
2022-09-07T14:23:51.403Z,24.66
2022-09-07T14:24:54.366Z,24.77
2022-09-07T14:26:16.636Z,24.77
2022-09-07T14:27:22.436Z,24.78
2022-09-07T14:28:32.186Z,24.80
2022-09-07T14:29:35.449Z,24.71
2022-09-07T14:30:37.523Z,24.79
2022-09-07T14:31:39.240Z,24.95
2022-09-07T14:32:41.024Z,24.96
2022-09-07T14:33:47.101Z,24.98
2022-09-07T14:34:49.392Z,24.96
2022-09-07T14:35:51.077Z,25.01
2022-09-07T14:36:53.104Z,25.14
2022-09-07T14:37:58.078Z,24.78
2022-09-07T14:39:05.339Z,24.40
2022-09-07T14:40:15.204Z,24.24
2022-09-07T14:41:18.671Z,24.41
2022-09-07T14:42:23.880Z,24.65
2022-09-07T14:43:31.728Z,24.81
2022-09-07T14:44:36.425Z,24.98
2022-09-07T14:45:38.128Z,25.12
2022-09-07T14:46:46.357Z,25.08
2022-09-07T14:47:50.497Z,25.17
2022-09-07T14:48:55.750Z,25.05
2022-09-07T14:50:01.104Z,25.17
2022-09-07T14:51:27.061Z,25.08
2022-09-07T14:52:31.304Z,25.17
2022-09-07T14:53:34.847Z,25.24
2022-09-07T14:54:36.797Z,25.26
2022-09-07T14:55:40.648Z,25.22
2022-09-07T14:56:42.186Z,25.30
2022-09-07T14:57:45.290Z,25.12
2022-09-07T14:58:47.115Z,24.95
2022-09-07T14:59:48.752Z,25.06
2022-09-07T15:02:33.216Z,25.30
2022-09-07T15:03:52.085Z,24.96
2022-09-07T15:05:25.930Z,24.74
2022-09-07T15:08:01.971Z,24.48
2022-09-07T15:09:04.618Z,24.55